Dakin Peak, Santa Catalina Island Weather observations

Data are for 10 minute period ending at time listed.
 Day   Time   Solar   Ave.   Ave.  Ave.  Vector    Max.   Stn.    Total
  of    of     Rad.   Air    Rel.  Wind   Wind     Wind   Baro.  Precip.
Year   Day            Temp.  Hum.  Speed  Dir.     Gust   Pres.         
2015   (PST)   W/m2    F      %     mph   deg.      mph    mb.     in.  
------------------------------------------------------------------------
 141   11:30  187.0    58   77.6     5      9.9     8.4    999.0   0.00  
 141   11:40  144.0    57   78.3     4      8.0     7.2    999.0   0.00  
 141   11:50  164.0    57   79.3     4    339.5     7.2    999.0   0.00  
 141   12:00  183.0    57   80.1     4    353.2     6.0    999.0   0.00  
 141   12:10  274.0    58   79.9     4     47.8     7.8    999.0   0.00  
 141   12:20  235.0    58   79.6     5     11.7     8.4    999.0   0.00  
 141   12:30  173.0    58   81.0     5      1.0     9.0    999.0   0.00  
 141   12:40  104.0    56   83.1     5    352.0     8.4    999.0   0.00  
 141   12:50   94.0    56   83.3     3      6.6     6.0    999.0   0.00  
 141   13:00   90.0    56   82.5     2     14.6     4.8    999.0   0.00  
 141   13:10   97.0    56   81.8     3     78.4     7.2    999.0   0.00  
 141   13:20   69.0    56   81.8     6     96.3     9.0    999.0   0.00  
 141   13:30   65.0    57   81.1     4     84.6     7.2    999.0   0.00  
 141   13:40   80.0    57   81.1     4    117.1     6.0    999.0   0.00  
 141   13:50   84.0    56   82.2     6     93.2     9.0    999.0   0.00  
 141   14:00   69.0    57   83.8     6     90.6     9.0    999.0   0.00  
 141   14:10   58.0    56   85.4     5     42.8     7.8    999.0   0.00  
 141   14:20   73.0    56   87.0     4     54.8     8.4    999.0   0.00  
 141   14:30  126.0    56   86.6     5    251.5    11.3    999.0   0.00  
 141   14:40  298.0    58   80.3     7    247.2    13.1    999.0   0.00  
 141   14:50  430.0    60   77.2     5    295.0    17.3    999.0   0.00  
 141   15:00  520.0    61   75.7     5    206.6    12.5    999.0   0.00  
 141   15:10  582.0    62   71.8     5    225.3     9.6    999.0   0.00  
 141   15:20  699.0    63   67.9     8    257.3    14.3    999.0   0.00  
 141   15:30  517.0    62   69.1     7    251.0    13.1    999.0   0.00  
 141   15:40  616.0    61   70.3     9    243.1    14.9    999.0   0.00  
 141   15:50  524.0    60   69.7    11    245.8    17.9    999.0   0.00  
 141   16:00  475.0    59   73.2    15    251.3    20.3    999.0   0.00  
 141   16:10  411.0    58   73.7    18    253.6    23.3    999.0   0.00  
 141   16:20  373.0    58   75.4    18    247.6    25.0    999.0   0.00  
 141   16:30  347.0    58   75.6    19    249.3    24.5    999.0   0.00  
 141   16:40  296.0    57   77.6    19    249.9    24.5    999.0   0.00  
 141   16:50  245.0    56   78.3    21    247.8    27.4    999.0   0.00  
 141   17:00  228.0    56   77.6    22    250.2    27.4    999.0   0.00  
 141   17:10  121.0    55   80.5    23    246.5    29.8    999.0   0.00  
 141   17:20  135.0    55   82.9    23    250.0    29.2    999.0   0.00  
 141   17:30   49.0    54   84.7    23    249.0    29.2    999.0   0.00  
 141   17:40   62.0    54   86.2    22    249.7    29.2    999.0   0.00  
 141   17:50   38.0    53   87.8    22    249.3    28.0    999.0   0.00  
 141   18:00   32.0    53   88.6    20    250.7    27.4    999.0   0.00  
 141   18:10   30.0    53   88.7    20    249.5    23.9    999.0   0.00  
 141   18:20   27.0    53   89.0    19    250.1    23.3    999.0   0.00  
 141   18:30   22.0    53   89.8    21    250.8    25.0    999.0   0.00  
 141   18:40   17.0    53   90.0    20    250.6    26.2    999.0   0.00  
 141   18:50    6.0    53   90.0    20    251.6    25.6    999.0   0.00  
 141   19:00    1.0    53   90.0    20    248.9    25.0    999.0   0.00  
 141   19:10    0.0    53   90.2    20    250.5    24.5    999.0   0.00  
 141   19:20    0.0    52   90.5    20    252.3    25.6    999.0   0.00  
 141   19:30    0.0    52   90.6    20    251.3    24.5    999.0   0.00  
 141   19:40    0.0    53   90.9    21    249.6    26.8    999.0   0.00  
 141   19:50    0.0    52   91.1    20    252.0    25.0    999.0   0.00  
 141   20:00    0.0    52   91.2    21    250.8    25.6    999.0   0.00  
 141   20:10    0.0    52   91.2    21    253.0    26.8    999.0   0.00  
 141   20:20    0.0    52   91.2    19    251.1    23.9    999.0   0.00  
 141   20:30    0.0    53   91.2    19    252.0    23.9    999.0   0.00  
 141   20:40    0.0    52   90.8    19    251.4    25.0    999.0   0.00  
 141   20:50    0.0    53   90.2    18    252.1    23.9    999.0   0.00  
 141   21:00    0.0    53   89.8    19    250.0    27.4    999.0   0.00  
 141   21:10    0.0    53   89.2    19    252.3    24.5    999.0   0.00  
 141   21:20    0.0    53   89.3    20    252.1    25.6    999.0   0.00  
 141   21:30    0.0    53   89.5    20    250.6    26.8    999.0   0.00  
 141   21:40    0.0    53   89.0    20    252.2    26.2    999.0   0.00  
 141   21:50    0.0    53   88.9    20    254.9    26.8    999.0   0.00  
 141   22:00    0.0    53   89.2    19    257.0    23.9    999.0   0.00  
 141   22:10    0.0    53   89.4    19    253.7    25.6    999.0   0.00  
 141   22:20    0.0    53   89.5    19    256.6    25.0    999.0   0.00  
 141   22:30    0.0    53   89.6    20    255.2    25.0    999.0   0.00  
 141   22:40    0.0    53   89.5    19    257.7    25.0    999.0   0.00  
 141   22:50    0.0    53   89.7    19    256.0    24.5    999.0   0.00  
 141   23:00    0.0    53   89.6    18    253.2    22.7    999.0   0.00  
 141   23:10    0.0    53   90.1    19    255.4    23.9    999.0   0.00  
 141   23:20    0.0    52   90.7    19    253.6    24.5    999.0   0.00  
 141   23:30    0.0    52   90.9    20    252.8    26.2    999.0   0.00  
 141   23:40    0.0    52   91.2    21    251.4    25.6    999.0   0.00  
 141   23:50    0.0    52   91.4    22    252.5    29.8    999.0   0.00  
 142    0:00    0.0    52   91.3    20    254.7    26.2    999.0   0.00  
 142    0:10    0.0    52   91.2    19    255.5    23.3    999.0   0.00  
 142    0:20    0.0    52   91.2    19    255.5    23.3    999.0   0.00  
 142    0:30    0.0    52   91.3    19    254.1    24.5    999.0   0.00  
 142    0:40    0.0    52   91.3    19    252.3    25.6    999.0   0.00  
 142    0:50    0.0    52   91.2    20    250.1    26.2    999.0   0.00  
 142    1:00    0.0    52   91.3    21    252.0    26.8    999.0   0.00  
 142    1:10    0.0    52   91.1    20    250.5    26.2    999.0   0.00  
 142    1:20    0.0    52   90.8    19    251.1    26.2    999.0   0.00  
 142    1:30    0.0    52   90.9    19    252.8    25.0    999.0   0.00  
 142    1:40    0.0    52   91.2    19    252.3    25.0    999.0   0.00  
 142    1:50    0.0    52   91.4    17    250.7    22.7    999.0   0.00  
 142    2:00    0.0    52   91.6    17    251.6    22.7    999.0   0.00  
 142    2:10    0.0    52   91.8    18    249.1    23.9    999.0   0.00  
 142    2:20    0.0    52   91.9    20    251.7    27.4    999.0   0.00  
 142    2:30    0.0    52   91.7    18    251.0    26.2    999.0   0.00  
 142    2:40    0.0    52   91.9    16    250.7    23.3    999.0   0.00  
 142    2:50    0.0    51   91.7    18    251.1    26.8    999.0   0.00  
 142    3:00    0.0    51   91.0    18    256.4    23.3    999.0   0.00  
 142    3:10    0.0    51   91.1    17    253.2    24.5    999.0   0.00  
 142    3:20    0.0    51   91.5    17    251.2    20.9    999.0   0.00  
 142    3:30    0.0    51   91.6    18    256.3    23.9    999.0   0.00  
 142    3:40    0.0    51   91.8    17    256.8    21.5    999.0   0.00  
 142    3:50    0.0    51   91.9    17    256.6    23.3    999.0   0.00  
 142    4:00    0.0    51   92.0    16    256.5    20.9    999.0   0.00  
 142    4:10    0.0    51   92.2    16    255.0    20.3    999.0   0.00  
 142    4:20    0.0    51   92.2    15    254.2    20.9    999.0   0.00  
 142    4:30    0.0    51   91.9    16    254.5    21.5    999.0   0.00  
 142    4:40    0.0    51   92.0    17    253.1    22.1    999.0   0.00  
 142    4:50    2.0    51   92.1    18    252.5    23.3    999.0   0.00  
 142    5:00    5.0    51   92.0    18    257.0    24.5    999.0   0.00  
 142    5:10   10.0    51   91.9    20    257.0    24.5    999.0   0.00  
 142    5:20   18.0    51   91.8    18    259.0    23.9    999.0   0.00  
 142    5:30   64.0    52   91.8    16    259.5    22.1    999.0   0.00  
 142    5:40   94.0    52   91.2    15    260.2    20.9    999.0   0.00  
 142    5:50  107.0    52   90.7    14    256.3    19.1    999.0   0.00  
 142    6:00  123.0    52   90.3    14    257.1    17.9    999.0   0.00  
 142    6:10  170.0    53   89.8    14    256.2    17.3    999.0   0.00  
 142    6:20  223.0    53   89.0    14    258.7    18.5    999.0   0.00  
 142    6:30  217.0    54   88.4    13    254.1    19.1    999.0   0.00  
 142    6:40  236.0    53   87.8    12    258.7    18.5    999.0   0.00  
 142    6:50  263.0    54   86.2    12    257.8    19.7    999.0   0.00  
 142    7:00  296.0    54   85.1    15    250.5    22.1    999.0   0.00  
 142    7:10  334.0    55   83.6    13    251.7    18.5    999.0   0.00  
 142    7:20  344.0    55   81.4    13    247.4    19.1    999.0   0.00  
 142    7:30  395.0    56   80.5    12    257.8    18.5    999.0   0.00  
 142    7:40  329.0    56   79.1    11    254.6    18.5    999.0   0.00  
 142    7:50  275.0    56   81.4     7    245.0    11.3    999.0   0.00  
 142    8:00  222.0    55   84.1    11    253.3    16.7    999.0   0.00  
 142    8:10  486.0    56   80.3    12    250.4    20.9    999.0   0.00  
 142    8:20  525.0    57   77.6    12    253.2    18.5    999.0   0.00  
 142    8:30  396.0    57   77.1    11    251.4    16.1    999.0   0.00  
 142    8:40  467.0    57   76.7    13    253.7    19.1    999.0   0.00  
 142    8:50  523.0    57   77.3    12    251.2    19.1    999.0   0.00  
 142    9:00  560.0    57   74.4    12    251.1    17.9    999.0   0.00  
 142    9:10  551.0    59   72.7    10    253.4    18.5    999.0   0.00  
 142    9:20  546.0    58   73.6    10    248.7    17.9    999.0   0.00  
 142    9:30  399.0    58   75.1    10    247.6    16.7    999.0   0.00  
 142    9:40  328.0    58   73.7    11    254.6    16.7    999.0   0.00  
 142    9:50  555.0    58   71.7    11    254.8    22.1    999.0   0.00  
 142   10:00  722.0    58   69.5    11    252.8    16.7    999.0   0.00  
 142   10:10  586.0    59   69.3    13    253.2    20.3    999.0   0.00  
 142   10:20  623.0    59   71.2    11    250.0    16.1    999.0   0.00  
 142   10:30  809.0    61   67.4     8    244.1    14.9    999.0   0.00  
 142   10:40  387.0    60   71.0    10    248.8    16.1    999.0   0.00  
 142   10:50  577.0    59   75.1    13    255.5    18.5    999.0   0.00  
 142   11:00  763.0    59   73.2    13    255.8    19.7    999.0   0.00  
 142   11:10  641.0    60   72.9    11    249.0    17.3    999.0   0.00  
 142   11:20  578.0    59   72.8    14    247.9    20.3    999.0   0.00  

Return to Dakin Peak graphs page.


Western Regional Climate Center,wrcc@dri.edu